Data for 10/08/2014

Time Sea-Level Adjusted Pressure Absolute Pressure Temperature Relative Humidity Dew Point   
(mb) (inHg) (mb) (inHg) (C) (F) (%) (C) (F)
00:05 1018 30.06 847 25.01 12.8 55 49 2.3 36.1
00:10 1018 30.06 847 25.01 12.8 55.1 48 2.2 35.9
00:15 1018 30.06 847 25.01 12.9 55.2 48 2.1 35.8
00:20 1018 30.06 847 25.01 12.7 54.8 48 2.1 35.8
00:25 1018 30.06 847 25.01 12.5 54.5 49 2.1 35.8
00:30 1018 30.06 847 25.01 12.4 54.3 49 2.1 35.8
00:35 1018 30.06 847 25.01 12.2 54 50 2.1 35.8
00:40 1018 30.06 847 25.01 12 53.5 51 2.3 36.1
00:45 1018 30.06 847 25.01 11.7 53.1 50 1.8 35.3
00:50 1018 30.06 847 25.01 11.9 53.5 52 2.4 36.3
00:55 1018 30.06 847 25.01 11.3 52.4 52 2 35.6
01:00 1018 30.06 847 25.01 11.6 52.9 50 1.7 35.1
01:05 1018 30.06 847 25.01 12 53.6 49 1.7 35
01:10 1018 30.06 847 25.01 12.2 53.9 49 1.9 35.5
01:15 1018 30.06 847 25.01 11.9 53.3 50 1.9 35.5
01:20 1018 30.06 847 25.01 11.6 52.9 51 1.8 35.2
01:25 1018 30.06 847 25.01 11.5 52.7 51 1.9 35.5
01:30 1018 30.06 847 25.01 11.4 52.5 52 1.9 35.4
01:35 1018 30.06 848 25.04 11.3 52.4 51 1.6 34.9
01:40 1018 30.06 848 25.04 11.4 52.4 53 2.1 35.8
01:45 1018 30.06 847 25.01 10.8 51.4 55 2.1 35.7
01:50 1018 30.06 847 25.01 10.4 50.8 55 1.9 35.3
01:55 1018 30.06 847 25.01 10.8 51.4 53 1.7 35.1
02:00 1018 30.06 847 25.01 10.9 51.6 53 1.9 35.4
02:05 1018 30.06 847 25.01 10.9 51.5 54 2.1 35.7
02:10 1018 30.06 847 25.01 10.7 51.2 55 2 35.6
02:15 1018 30.06 847 25.01 10.4 50.7 56 2.1 35.8
02:20 1018 30.06 847 25.01 10.2 50.3 55 1.5 34.7
02:25 1018 30.06 847 25.01 10.6 51 55 2 35.6
02:30 1018 30.06 847 25.01 10.3 50.6 55 1.7 35
02:35 1018 30.06 847 25.01 10.6 51.1 54 1.7 35.1
02:40 1018 30.06 847 25.01 10.6 51.1 55 2 35.6
02:45 1018 30.06 847 25.01 10.4 50.8 56 2.1 35.8
02:50 1018 30.06 847 25.01 10.2 50.4 56 1.9 35.4
02:55 1018 30.06 847 25.01 10.5 50.9 53 1.4 34.5
03:00 1018 30.06 847 25.01 11.1 52 52 1.8 35.2
03:05 1018 30.06 847 25.01 11.2 52.2 52 1.9 35.3
03:10 1018 30.06 847 25.01 11 51.8 53 1.9 35.5
03:15 1018 30.06 847 25.01 10.9 51.5 54 1.9 35.4
03:20 1018 30.06 847 25.01 10.8 51.5 55 2.1 35.7
03:25 1018 30.06 847 25.01 10.4 50.8 54 1.6 34.8
03:30 1018 30.06 847 25.01 10.5 50.8 56 2 35.6
03:35 1018 30.06 847 25.01 10.2 50.4 57 2 35.6
03:40 1018 30.06 847 25.01 10.3 50.5 55 1.8 35.3
03:45 1018 30.06 847 25.01 10.4 50.7 55 1.8 35.3
03:50 1018 30.06 847 25.01 10.2 50.4 56 1.9 35.4
03:55 1018 30.06 847 25.01 9.7 49.5 58 2 35.5
04:00 1018 30.06 847 25.01 9.3 48.8 60 1.9 35.4
04:05 1018 30.06 847 25.01 9.1 48.3 60 1.7 35
04:10 1018 30.06 847 25.01 9.3 48.7 58 1.5 34.7
04:15 1018 30.06 847 25.01 9.6 49.3 59 2 35.6
04:20 1018 30.06 847 25.01 9.2 48.5 58 1.4 34.5
04:25 1018 30.06 847 25.01 9.7 49.5 57 1.7 35.1
04:30 1018 30.06 847 25.01 9.6 49.3 57 1.6 34.8
04:35 1018 30.06 848 25.04 9.5 49.1 58 1.7 35.1
04:40 1018 30.06 848 25.04 9.8 49.6 56 1.5 34.6
04:45 1018 30.06 848 25.04 9.8 49.7 58 1.9 35.4
04:50 1018 30.06 848 25.04 9.6 49.2 57 1.6 34.8
04:55 1018 30.06 848 25.04 9.4 49 58 1.7 35
05:00 1018 30.06 848 25.04 9.6 49.2 57 1.5 34.8
05:05 1018 30.06 848 25.04 9.6 49.3 58 1.8 35.2
05:10 1018 30.06 848 25.04 9.4 48.9 57 1.4 34.6
05:15 1018 30.06 847 25.01 9.7 49.5 57 1.7 35.1
05:20 1018 30.06 847 25.01 9.2 48.6 60 1.9 35.4
05:25 1018 30.06 847 25.01 8.9 47.9 60 1.7 35
05:30 1018 30.06 847 25.01 8.9 48 60 1.5 34.8
05:35 1018 30.06 847 25.01 9.1 48.4 58 1.4 34.4
05:40 1018 30.06 847 25.01 9.7 49.4 57 1.6 34.8
05:45 1018 30.06 847 25.01 10.1 50.1 56 1.7 35
05:50 1018 30.06 848 25.04 10.2 50.3 55 1.6 34.9
05:55 1018 30.06 848 25.04 10.1 50.2 56 1.7 35.1
06:00 1018 30.06 848 25.04 10 50.1 56 1.7 35
06:05 1018 30.06 848 25.04 9.8 49.7 57 1.8 35.2
06:10 1018 30.06 848 25.04 9.4 49 59 1.9 35.4
06:15 1018 30.06 848 25.04 9.2 48.5 58 1.4 34.6
06:20 1018 30.06 848 25.04 9.8 49.6 56 1.5 34.7
06:25 1018 30.06 848 25.04 9.7 49.5 59 2.1 35.7
06:30 1019 30.09 848 25.04 9.7 49.4 58 1.8 35.2
06:35 1019 30.09 848 25.04 9.8 49.6 58 1.9 35.5
06:40 1019 30.09 848 25.04 9.4 49 59 1.8 35.3
06:45 1019 30.09 848 25.04 9.4 49 59 1.7 35.1
06:50 1019 30.09 848 25.04 9.5 49.2 59 2 35.6
06:55 1019 30.09 848 25.04 9.2 48.6 59 1.7 35
07:00 1019 30.09 848 25.04 9.6 49.3 57 1.5 34.8
07:05 1019 30.09 848 25.04 9.3 48.8 58 1.6 34.9
07:10 1019 30.09 848 25.04 9.1 48.4 62 2.2 35.9
07:15 1019 30.09 848 25.04 8.8 47.8 60 1.4 34.6
07:20 1019 30.09 848 25.04 9.7 49.5 56 1.5 34.8
07:25 1019 30.09 848 25.04 10 50 56 1.6 34.9
07:30 1019 30.09 848 25.04 10.8 51.4 52 1.4 34.5
07:35 1019 30.09 848 25.04 11 51.8 55 2.3 36.1
07:40 1019 30.09 848 25.04 11 51.7 54 2.1 35.7
07:45 1019 30.09 848 25.04 11.1 52 53 2 35.6
07:50 1019 30.09 848 25.04 11.5 52.6 53 2.3 36.2
07:55 1019 30.09 848 25.04 11.5 52.7 53 2.2 36
08:00 1019 30.09 848 25.04 11.7 53 53 2.4 36.3
08:05 1019 30.09 848 25.04 11.5 52.7 55 2.7 36.9
08:10 1019 30.09 848 25.04 11.7 53 55 2.9 37.1
08:15 1019 30.09 848 25.04 11.6 52.9 55 2.8 37.1
08:20 1019 30.09 848 25.04 11.3 52.4 55 2.7 36.9
08:25 1019 30.09 848 25.04 12 53.5 53 2.9 37.2
08:30 1019 30.09 848 25.04 12.3 54.1 54 3.3 37.9
08:35 1019 30.09 848 25.04 12.4 54.4 53 3.2 37.8
08:40 1019 30.09 848 25.04 12.3 54.2 54 3.2 37.8
08:45 1019 30.09 848 25.04 12.6 54.7 53 3.3 37.9
08:50 1019 30.09 848 25.04 13.1 55.6 51 3.1 37.6
08:55 1019 30.09 848 25.04 13.5 56.4 50 3.4 38.1
09:00 1019 30.09 848 25.04 13.8 56.8 50 3.6 38.6
09:05 1019 30.09 848 25.04 13.7 56.6 51 3.8 38.8
09:10 1019 30.09 848 25.04 13.6 56.4 52 4 39.2
09:15 1019 30.09 848 25.04 13.5 56.4 53 4.3 39.7
09:20 1019 30.09 848 25.04 13.5 56.3 53 4.3 39.7
09:25 1019 30.09 848 25.04 13.7 56.6 52 4.1 39.3
09:30 1019 30.09 848 25.04 14.1 57.3 50 3.8 38.9
09:35 1019 30.09 848 25.04 14.1 57.4 49 3.5 38.3
09:40 1019 30.09 848 25.04 14.8 58.7 44 2.8 37.1
09:45 1019 30.09 848 25.04 15.4 59.7 43 3 37.3
09:50 1019 30.09 848 25.04 15.8 60.4 42 3 37.4
09:55 1019 30.09 848 25.04 16.4 61.4 39 2.3 36.2
10:00 1019 30.09 848 25.04 17.3 63.1 38 2.8 37.1
10:05 1019 30.09 848 25.04 17.1 62.8 38 2.8 37
10:10 1019 30.09 848 25.04 17.8 64.1 36 2.7 36.8
10:15 1019 30.09 848 25.04 18.5 65.3 35 2.8 37.1
10:20 1019 30.09 848 25.04 18.8 65.8 36 3.5 38.3
10:25 1019 30.09 848 25.04 19.7 67.4 32 2.6 36.8
10:30 1019 30.09 848 25.04 20.3 68.5 31 2.8 37.1
10:35 1019 30.09 848 25.04 20.2 68.4 31 3 37.3
10:40 1019 30.09 848 25.04 20.5 68.9 31 3 37.4
10:45 1019 30.09 848 25.04 21 69.8 30 3.1 37.5
10:50 1019 30.09 848 25.04 21.1 70 31 3.5 38.4
10:55 1019 30.09 848 25.04 20.9 69.7 31 3.4 38
11:00 1019 30.09 848 25.04 20.7 69.3 32 3.5 38.2
11:05 1019 30.09 848 25.04 20.9 69.6 32 3.6 38.5
11:10 1019 30.09 848 25.04 21 69.8 31 3.3 37.9
11:15 1019 30.09 848 25.04 20.6 69.1 33 3.8 38.9
11:20 1019 30.09 848 25.04 20 67.9 34 3.7 38.6
11:25 1019 30.09 848 25.04 20.3 68.5 34 4.1 39.3
11:30 1019 30.09 848 25.04 20.6 69.1 33 3.8 38.9
11:35 1019 30.09 848 25.04 20.4 68.7 33 3.6 38.4
11:40 1019 30.09 848 25.04 21.4 70.4 31 3.6 38.4
11:45 1019 30.09 848 25.04 21.7 71 30 3.6 38.5
11:50 1019 30.09 848 25.04 22.1 71.7 28 2.9 37.3
11:55 1019 30.09 848 25.04 22.6 72.6 28 3.1 37.6
12:00 1019 30.09 848 25.04 22.5 72.4 28 3.4 38.1
12:05 1019 30.09 848 25.04 22.4 72.2 28 3.1 37.6
12:10 1019 30.09 848 25.04 22.6 72.8 25 2.1 35.8
12:15 1019 30.09 848 25.04 23.1 73.7 26 2.9 37.3
12:20 1019 30.09 848 25.04 23.1 73.5 26 2.5 36.6
12:25 1019 30.09 848 25.04 23.1 73.5 20 -1 30.1
12:30 1019 30.09 848 25.04 23 73.3 18 -2.6 27.4
12:35 1019 30.09 848 25.04 23.3 73.9 19 -1.4 29.5
12:40 1019 30.09 848 25.04 23.3 73.9 17 -2.6 27.3
12:45 1018 30.06 848 25.04 22.6 72.7 19 -1.8 28.7
12:50 1018 30.06 848 25.04 22.9 73.3 18 -2.1 28.2
12:55 1018 30.06 848 25.04 23.2 73.8 17 -3 26.5
13:00 1018 30.06 848 25.04 23.5 74.2 18 -2.3 27.9
13:05 1018 30.06 848 25.04 23.4 74 18 -2.4 27.6
13:10 1018 30.06 847 25.01 23.4 74.1 17 -3.2 26.3
13:15 1018 30.06 847 25.01 22.8 73.1 19 -1.7 29
13:20 1018 30.06 847 25.01 22.4 72.3 17 -3.5 25.7
13:25 1018 30.06 847 25.01 22.4 72.4 18 -3.2 26.2
13:30 1018 30.06 847 25.01 23.1 73.6 17 -3.2 26.2
13:35 1018 30.06 847 25.01 23.4 74.2 19 -1.5 29.3
13:40 1018 30.06 847 25.01 22.7 72.9 20 -0.9 30.4
13:45 1018 30.06 847 25.01 22.8 73 20 -1.4 29.4
13:50 1018 30.06 847 25.01 22 71.6 20 -1.7 28.9
13:55 1018 30.06 847 25.01 21.4 70.4 20 -2 28.3
14:00 1018 30.06 847 25.01 21.6 70.9 20 -2.3 27.9
14:05 1018 30.06 847 25.01 22 71.5 20 -1.8 28.8
14:10 1018 30.06 847 25.01 21.8 71.2 20 -1.7 29
14:15 1018 30.06 847 25.01 21.5 70.8 21 -1.6 29
14:20 1018 30.06 847 25.01 21.1 69.9 20 -2.3 27.8
14:25 1018 30.06 847 25.01 20.8 69.5 23 -1 30.2
14:30 1018 30.06 847 25.01 21.2 70.2 24 -0.1 31.8
14:35 1018 30.06 847 25.01 20.6 69.1 24 -0.6 30.9
14:40 1017 30.03 847 25.01 20.4 68.8 24 -0.8 30.5
14:45 1017 30.03 847 25.01 20.4 68.8 24 -0.7 30.8
14:50 1017 30.03 847 25.01 20.6 69 24 -0.6 31
14:55 1017 30.03 847 25.01 20.6 69.1 24 -0.8 30.6
15:00 1017 30.03 847 25.01 21 69.8 22 -1.5 29.3
15:05 1017 30.03 847 25.01 21 69.7 22 -1.2 29.8
15:10 1017 30.03 847 25.01 20.9 69.6 22 -1.6 29.1
15:15 1017 30.03 847 25.01 20.7 69.3 22 -1.5 29.4
15:20 1017 30.03 847 25.01 20.8 69.5 21 -2 28.4
15:25 1017 30.03 846 24.98 21.2 70.2 21 -1.8 28.8
15:30 1017 30.03 846 24.98 21.2 70.2 21 -1.7 28.9
15:35 1017 30.03 846 24.98 21.1 70 21 -1.8 28.8
15:40 1017 30.03 846 24.98 21 69.8 21 -1.9 28.6
15:45 1017 30.03 846 24.98 21.6 70.8 20 -1.9 28.6
15:50 1017 30.03 846 24.98 22.2 71.9 21 -1 30.3
15:55 1017 30.03 846 24.98 21.8 71.2 21 -1.4 29.4
16:00 1017 30.03 846 24.98 21.8 71.3 21 -1.4 29.4
16:05 1017 30.03 846 24.98 21.5 70.7 21 -1.7 29
16:10 1017 30.03 846 24.98 21.4 70.6 21 -1.8 28.7
16:15 1017 30.03 846 24.98 21.8 71.2 21 -1.6 29.1
16:20 1017 30.03 846 24.98 21.8 71.3 20 -1.9 28.6
16:25 1017 30.03 846 24.98 21.9 71.4 22 -0.3 31.4
16:30 1017 30.03 846 24.98 21.7 71.1 23 -0.1 31.9
16:35 1017 30.03 846 24.98 21.6 70.9 24 0.6 33
16:40 1017 30.03 846 24.98 21.7 71 24 0.2 32.4
16:45 1017 30.03 846 24.98 21 69.7 24 -0.2 31.7
16:50 1017 30.03 846 24.98 20.5 68.9 28 1.5 34.7
16:55 1017 30.03 846 24.98 20.4 68.7 25 -0 31.9
17:00 1017 30.03 846 24.98 20.6 69 30 2.4 36.3
17:05 1017 30.03 846 24.98 20.1 68.1 29 1.5 34.6
17:10 1017 30.03 846 24.98 19.5 67 31 2.2 35.9
17:15 1017 30.03 846 24.98 18.8 65.9 31 1.7 35.1
17:20 1017 30.03 846 24.98 18.4 65.1 33 2.2 35.9
17:25 1017 30.03 846 24.98 17.9 64.1 37 3.1 37.6
17:30 1017 30.03 846 24.98 17.7 63.9 38 3.3 38
17:35 1017 30.03 846 24.98 17.7 63.8 37 2.9 37.3
17:40 1017 30.03 846 24.98 17.3 63.2 38 3 37.4
17:45 1017 30.03 846 24.98 17.2 62.9 39 3.3 38
17:50 1017 30.03 847 25.01 16.7 62 39 2.7 36.9
17:55 1017 30.03 847 25.01 16.7 62 39 2.7 36.9
18:00 1017 30.03 847 25.01 16.5 61.7 39 2.5 36.6
18:05 1017 30.03 847 25.01 16.5 61.6 39 2.7 36.8
18:10 1018 30.06 847 25.01 16.3 61.4 42 3.6 38.6
18:15 1018 30.06 847 25.01 16 60.7 43 3.4 38.1
18:20 1018 30.06 847 25.01 15.4 59.7 44 3.3 37.9
18:25 1018 30.06 847 25.01 15.1 59.1 40 1.8 35.2
18:30 1018 30.06 847 25.01 15.4 59.6 40 1.8 35.3
18:35 1018 30.06 847 25.01 15.1 59.1 42 2.5 36.5
18:40 1018 30.06 847 25.01 14.5 58 48 3.8 38.8
18:45 1018 30.06 847 25.01 14.3 57.8 45 2.8 37
18:50 1018 30.06 847 25.01 14 57.1 44 2.1 35.8
18:55 1018 30.06 847 25.01 14.1 57.4 40 1 33.7
19:00 1018 30.06 847 25.01 14.7 58.5 39 1.1 34
19:05 1018 30.06 847 25.01 14.8 58.7 40 1.6 34.8
19:10 1018 30.06 847 25.01 14.2 57.5 43 1.9 35.4
19:15 1018 30.06 847 25.01 13.7 56.6 44 1.6 34.8
19:20 1018 30.06 847 25.01 13.5 56.3 43 1.3 34.3
19:25 1018 30.06 847 25.01 13.7 56.6 42 1.1 33.9
19:30 1018 30.06 847 25.01 13.8 56.9 42 1.3 34.4
19:35 1018 30.06 847 25.01 13.9 57.1 41 1.1 34
19:40 1018 30.06 847 25.01 14.1 57.3 41 0.9 33.7
19:45 1018 30.06 847 25.01 14.1 57.4 42 1.4 34.6
19:50 1018 30.06 847 25.01 13.6 56.4 44 1.5 34.7
19:55 1018 30.06 847 25.01 13.2 55.8 44 1.3 34.3
20:00 1018 30.06 847 25.01 13.3 55.9 44 1.3 34.3
20:05 1018 30.06 847 25.01 13.3 56 43 1.2 34.2
20:10 1018 30.06 847 25.01 13.3 56 43 1.1 34.1
20:15 1018 30.06 847 25.01 13.3 55.9 43 1.1 34
20:20 1018 30.06 847 25.01 13.2 55.8 44 1.2 34.1
20:25 1018 30.06 847 25.01 13.3 55.9 44 1.4 34.4
20:30 1018 30.06 847 25.01 13.2 55.7 43 1.1 33.9
20:35 1018 30.06 847 25.01 13.1 55.6 44 1.3 34.3
20:40 1018 30.06 847 25.01 12.8 55.1 45 1.1 34
20:45 1018 30.06 847 25.01 13.1 55.6 41 0.3 32.6
20:50 1018 30.06 847 25.01 14 57.3 38 0.2 32.3
20:55 1018 30.06 847 25.01 14.7 58.4 38 0.7 33.2
21:00 1018 30.06 847 25.01 14.9 58.8 38 0.9 33.6
21:05 1018 30.06 847 25.01 14.9 58.8 39 1.3 34.3
21:10 1018 30.06 847 25.01 14.8 58.7 40 1.5 34.6
21:15 1018 30.06 847 25.01 14.7 58.4 42 2 35.7
21:20 1018 30.06 848 25.04 14.6 58.2 42 2 35.7
21:25 1018 30.06 848 25.04 14.5 58.2 43 2.2 35.9
21:30 1018 30.06 848 25.04 14.5 58.1 43 2.3 36.2
21:35 1018 30.06 848 25.04 14.5 58.2 44 2.4 36.3
21:40 1018 30.06 848 25.04 14.5 58.1 44 2.5 36.6
21:45 1018 30.06 847 25.01 14.4 57.9 45 2.7 36.8
21:50 1018 30.06 848 25.04 14.3 57.7 45 2.7 36.9
21:55 1018 30.06 848 25.04 14.1 57.5 46 2.9 37.2
22:00 1018 30.06 848 25.04 14.1 57.4 47 3 37.4
22:05 1018 30.06 848 25.04 14.1 57.3 47 3.1 37.6
22:10 1018 30.06 848 25.04 14.1 57.3 48 3.2 37.7
22:15 1018 30.06 848 25.04 14.1 57.4 48 3.3 37.9
22:20 1018 30.06 848 25.04 14.1 57.4 48 3.3 37.9
22:25 1018 30.06 848 25.04 14.1 57.3 48 3.3 37.9
22:30 1018 30.06 848 25.04 14.1 57.4 48 3.3 38
22:35 1018 30.06 848 25.04 14.1 57.4 48 3.4 38.1
22:40 1018 30.06 848 25.04 14 57.2 49 3.4 38.2
22:45 1018 30.06 848 25.04 13.9 57.1 49 3.4 38.1
22:50 1019 30.09 848 25.04 13.8 56.9 49 3.5 38.2
22:55 1019 30.09 848 25.04 13.8 56.8 50 3.5 38.3
23:00 1019 30.09 848 25.04 13.7 56.6 50 3.5 38.3
23:05 1019 30.09 848 25.04 13.7 56.6 50 3.6 38.5
23:10 1019 30.09 848 25.04 13.6 56.4 50 3.5 38.4
23:15 1019 30.09 848 25.04 13.6 56.5 50 3.6 38.4
23:20 1019 30.09 848 25.04 13.6 56.5 50 3.6 38.4
23:25 1019 30.09 848 25.04 13.6 56.4 51 3.6 38.5
23:30 1019 30.09 848 25.04 13.5 56.3 51 3.6 38.6
23:35 1019 30.09 848 25.04 13.5 56.3 51 3.6 38.4
23:40 1019 30.09 848 25.04 13.5 56.2 51 3.7 38.6
23:45 1019 30.09 848 25.04 13.3 56 51 3.6 38.4
23:50 1019 30.09 848 25.04 13.3 55.9 52 3.7 38.6
23:55 1019 30.09 848 25.04 13.1 55.6 52 3.6 38.5
24:00 1019 30.09 848 25.04 13 55.5 53 3.6 38.6